Time;durP1;ratioP1;P1;durP2;ratioP2;P2;SDS_P1;SDS_P2;PMS_P1;PMS_P2;Temp;Humidity;BMP_temperature;BMP_pressure;BME280_temperature;BME280_humidity;BME280_pressure;Samples;Min_cycle;Max_cycle;Signal;HPM_P1;HPM_P2
2022/02/12 02:48:23;;;;;;;7.00;1.40;;;1.30;99.90;;;;;;5724279;23;20524;-81
2022/02/12 02:56:18;;;;;;;5.97;1.77;;;1.10;99.90;;;;;;4961437;29;20038;-80
2022/02/12 02:58:48;;;;;;;;;;;1.10;99.90;;;;;;4961462;29;20012;-81
2022/02/12 03:01:21;;;;;;;4.85;1.67;;;1.10;99.90;;;;;;4961096;29;19915;-81
2022/02/12 03:03:50;;;;;;;9.38;4.80;;;1.10;99.90;;;;;;4961084;29;20024;-81
2022/02/12 03:06:18;;;;;;;8.45;4.32;;;1.00;99.90;;;;;;4960738;29;20008;-81
2022/02/12 03:08:44;;;;;;;9.18;3.72;;;1.00;99.90;;;;;;4944640;29;20042;-80
2022/02/12 03:11:12;;;;;;;7.13;3.35;;;1.10;99.90;;;;;;4960963;29;20048;-81
2022/02/12 03:13:39;;;;;;;9.88;3.33;;;1.00;99.90;;;;;;4944642;29;20027;-80
2022/02/12 03:16:08;;;;;;;6.47;2.65;;;0.90;99.90;;;;;;4944389;29;20043;-80
2022/02/12 03:18:34;;;;;;;6.00;2.38;;;0.90;99.90;;;;;;4960860;29;20015;-81
2022/02/12 03:21:00;;;;;;;6.45;2.35;;;0.80;99.90;;;;;;4944057;29;20063;-81
2022/02/12 03:23:26;;;;;;;;;;;0.70;99.90;;;;;;4960313;28;20023;-81
2022/02/12 03:25:52;;;;;;;4.50;2.17;;;0.70;99.90;;;;;;4960822;29;20381;-78
2022/02/12 03:28:18;;;;;;;;;;;0.60;99.90;;;;;;4961459;29;20008;-81
2022/02/12 03:30:46;;;;;;;4.22;1.77;;;0.40;99.90;;;;;;4960526;29;19911;-81
2022/02/12 03:33:13;;;;;;;4.43;1.75;;;0.50;99.90;;;;;;4960253;29;20035;-80
2022/02/12 03:35:39;;;;;;;5.45;1.60;;;0.50;99.90;;;;;;4960400;29;20028;-81
2022/02/12 03:38:07;;;;;;;5.72;2.28;;;0.60;99.90;;;;;;4944278;29;20022;-81
2022/02/12 03:40:35;;;;;;;4.88;1.77;;;0.60;99.90;;;;;;4960636;29;20043;-81
2022/02/12 03:43:00;;;;;;;5.15;2.25;;;0.70;99.90;;;;;;4942515;29;20031;-82
2022/02/12 03:45:26;;;;;;;;;;;0.80;99.90;;;;;;4960400;29;20096;-82
2022/02/12 03:47:52;;;;;;;6.13;1.80;;;0.80;99.90;;;;;;4960460;29;19918;-80
2022/02/12 03:50:18;;;;;;;;;;;0.80;99.90;;;;;;4960781;29;20064;-81
2022/02/12 03:52:44;;;;;;;3.10;1.42;;;0.80;99.90;;;;;;4960282;29;19895;-81
2022/02/12 03:55:10;;;;;;;6.95;2.40;;;0.80;99.90;;;;;;4960637;29;20035;-81
2022/02/12 03:57:36;;;;;;;4.50;1.60;;;0.80;99.90;;;;;;4960440;29;20023;-81
2022/02/12 04:00:11;;;;;;;4.25;1.20;;;0.80;99.90;;;;;;4960420;29;20016;-82
2022/02/12 04:02:37;;;;;;;7.32;1.63;;;0.70;99.90;;;;;;4960434;29;20023;-80
2022/02/12 04:05:04;;;;;;;3.33;1.30;;;0.70;99.90;;;;;;4960160;29;20015;-80
2022/02/12 04:07:30;;;;;;;4.25;1.20;;;0.70;99.90;;;;;;4960335;29;20028;-79
2022/02/12 04:09:55;;;;;;;;;;;0.70;99.90;;;;;;4943878;29;20019;-80
2022/02/12 04:12:21;;;;;;;7.32;3.70;;;0.80;99.90;;;;;;4943744;29;19922;-80
2022/02/12 04:14:48;;;;;;;;;;;0.90;99.90;;;;;;4960839;29;20079;-80
2022/02/12 04:17:15;;;;;;;6.40;2.20;;;0.90;99.90;;;;;;4960382;29;19961;-80
2022/02/12 04:19:40;;;;;;;6.07;2.13;;;0.90;99.90;;;;;;4960390;29;20060;-80
2022/02/12 04:22:06;;;;;;;;;;;1.00;99.90;;;;;;4959779;28;20031;-81
2022/02/12 04:24:32;;;;;;;6.60;2.50;;;0.90;99.90;;;;;;4943822;29;19926;-80
2022/02/12 04:26:58;;;;;;;4.25;2.15;;;0.80;99.90;;;;;;4943670;29;20079;-81
2022/02/12 04:29:24;;;;;;;;;;;0.70;99.90;;;;;;4960396;29;20095;-81
2022/02/12 04:31:50;;;;;;;25.70;10.38;;;0.70;99.90;;;;;;4960045;29;19910;-79
2022/02/12 04:34:15;;;;;;;;;;;0.70;99.90;;;;;;4960616;29;20016;-81
2022/02/12 04:36:41;;;;;;;17.75;6.82;;;0.50;99.90;;;;;;4960047;29;19895;-81
2022/02/12 04:39:07;;;;;;;22.73;8.98;;;0.50;99.90;;;;;;4960171;29;20012;-81
2022/02/12 04:41:33;;;;;;;24.98;10.05;;;0.40;99.90;;;;;;4960396;28;20034;-80
2022/02/12 04:43:59;;;;;;;27.20;11.13;;;0.30;99.90;;;;;;4960759;29;20051;-80
2022/02/12 04:46:25;;;;;;;;;;;0.20;99.90;;;;;;4944806;29;20031;-82
2022/02/12 04:48:50;;;;;;;21.40;8.95;;;0.20;99.90;;;;;;4960817;29;19933;-79
2022/02/12 04:51:16;;;;;;;;;;;0.10;99.90;;;;;;4959236;29;20012;-80
2022/02/12 04:56:20;;;;;;;15.43;6.15;;;0.10;99.90;;;;;;5333830;23;20070;-80
2022/02/12 04:58:45;;;;;;;;;;;0.20;99.90;;;;;;4966843;28;20016;-80
2022/02/12 05:01:19;;;;;;;21.15;8.35;;;0.20;99.90;;;;;;4966535;29;19909;-80
2022/02/12 05:03:48;;;;;;;26.38;9.73;;;0.30;99.90;;;;;;4983422;28;20030;-77
2022/02/12 05:06:13;;;;;;;25.98;10.68;;;0.10;99.90;;;;;;4966674;29;20019;-80
2022/02/12 05:08:40;;;;;;;;;;;0.20;99.90;;;;;;4983692;28;20050;-81
2022/02/12 05:11:06;;;;;;;40.22;12.20;;;0.10;99.90;;;;;;4982892;28;19917;-79
2022/02/12 05:13:32;;;;;;;32.53;10.70;;;0.00;99.90;;;;;;4983255;28;20020;-80
2022/02/12 05:15:58;;;;;;;;;;;0.10;99.90;;;;;;4982958;28;20008;-79
2022/02/12 05:18:24;;;;;;;17.73;5.97;;;0.00;99.90;;;;;;4982975;28;19894;-81
2022/02/12 05:20:49;;;;;;;;;;;0.10;99.90;;;;;;4966776;28;20104;-80
2022/02/12 05:23:15;;;;;;;7.90;4.40;;;0.00;99.90;;;;;;4966288;28;19901;-80
2022/02/12 05:25:41;;;;;;;;;;;0.00;99.90;;;;;;4983474;28;20011;-80
2022/02/12 05:28:07;;;;;;;4.22;1.20;;;0.00;99.90;;;;;;4982957;28;19909;-80
2022/02/12 05:30:33;;;;;;;;;;;0.10;99.90;;;;;;4983241;28;20023;-78
2022/02/12 05:32:59;;;;;;;10.40;3.25;;;0.10;99.90;;;;;;4966225;29;19895;-81
2022/02/12 05:35:29;;;;;;;11.50;3.55;;;0.10;99.90;;;;;;4982937;28;20011;-79
2022/02/12 05:37:54;;;;;;;9.93;3.20;;;0.10;99.90;;;;;;4982515;28;20008;-80
2022/02/12 05:40:20;;;;;;;;;;;0.10;99.90;;;;;;4982362;28;20038;-80
2022/02/12 05:42:46;;;;;;;9.48;3.80;;;0.00;99.90;;;;;;4982300;28;19917;-83
2022/02/12 05:45:11;;;;;;;;;;;0.00;99.90;;;;;;4964878;29;20011;-78
2022/02/12 05:47:39;;;;;;;9.35;3.08;;;-0.20;99.90;;;;;;4981792;28;19895;-80
2022/02/12 05:50:06;;;;;;;10.48;1.95;;;-0.20;99.90;;;;;;4981943;28;20015;-80
2022/02/12 05:52:32;;;;;;;6.30;2.38;;;-0.10;99.90;;;;;;4965394;28;20027;-79
2022/02/12 05:54:58;;;;;;;;;;;0.00;99.90;;;;;;4982749;28;20031;-80
2022/02/12 05:57:24;;;;;;;16.65;6.18;;;-0.30;99.90;;;;;;4954170;29;19913;-79
2022/02/12 05:59:49;;;;;;;;;;;-0.20;99.90;;;;;;4937849;29;20035;-79
2022/02/12 06:02:15;;;;;;;12.20;4.43;;;-0.20;99.90;;;;;;4952668;29;19918;-79
2022/02/12 06:04:41;;;;;;;11.50;5.00;;;-0.20;99.90;;;;;;4934551;29;20031;-78
2022/02/12 06:07:10;;;;;;;;;;;-0.20;99.90;;;;;;4950652;29;20024;-80
2022/02/12 06:09:36;;;;;;;8.05;3.70;;;-0.10;99.90;;;;;;4945758;29;19895;-79
2022/02/12 06:12:05;;;;;;;10.07;4.82;;;-0.10;99.90;;;;;;4953926;29;20027;-79
2022/02/12 06:14:31;;;;;;;11.50;5.10;;;-0.10;99.90;;;;;;4942773;29;20016;-79
2022/02/12 06:16:59;;;;;;;;;;;-0.20;99.90;;;;;;4943884;29;20016;-79
2022/02/12 06:19:26;;;;;;;38.65;14.98;;;-0.30;99.90;;;;;;4946065;29;19895;-81
2022/02/12 06:21:53;;;;;;;99.78;39.88;;;-0.30;99.90;;;;;;4962576;29;20044;-82
2022/02/12 06:24:19;;;;;;;;;;;-0.10;99.90;;;;;;4962587;29;20023;-79
2022/02/12 06:26:51;;;;;;;46.60;16.80;;;-0.30;99.90;;;;;;4962533;29;19902;-81
2022/02/12 06:29:20;;;;;;;15.88;5.53;;;-0.20;99.90;;;;;;4962534;29;20011;-80
2022/02/12 06:31:46;;;;;;;11.57;4.00;;;-0.20;99.90;;;;;;4946116;29;20008;-80
2022/02/12 06:34:11;;;;;;;;;;;-0.30;99.90;;;;;;4962267;29;20039;-82
2022/02/12 06:36:38;;;;;;;11.07;4.68;;;-0.20;99.90;;;;;;4962482;29;19895;-80
2022/02/12 06:39:04;;;;;;;15.07;5.47;;;-0.20;99.90;;;;;;4962348;29;20008;-78
2022/02/12 06:41:29;;;;;;;;;;;-0.10;99.90;;;;;;4962300;29;20039;-81
2022/02/12 06:43:55;;;;;;;15.10;5.32;;;0.10;99.90;;;;;;4961454;29;19966;-80
2022/02/12 06:46:21;;;;;;;15.38;6.00;;;0.20;99.90;;;;;;4945192;29;20027;-79
2022/02/12 06:48:47;;;;;;;;;;;0.40;99.90;;;;;;4962465;29;20027;-80
2022/02/12 06:51:15;;;;;;;12.48;5.28;;;1.00;99.90;;;;;;4961474;29;19926;-79
2022/02/12 08:32:51;;;;;;;9.75;4.90;;;11.60;48.70;;;;;;5240031;23;20056;-84
2022/02/12 08:35:16;;;;;;;;;;;11.80;47.70;;;;;;4919269;29;20556;-84
2022/02/12 08:37:44;;;;;;;16.05;8.10;;;11.90;46.80;;;;;;4935868;29;20454;-82
2022/02/12 08:40:14;;;;;;;8.38;4.03;;;11.90;46.60;;;;;;4935674;29;20028;-83
2022/02/12 08:42:41;;;;;;;6.13;3.15;;;12.40;46.00;;;;;;4935000;29;20044;-84
2022/02/12 08:45:08;;;;;;;7.43;2.63;;;12.80;44.80;;;;;;4935579;29;20450;-87
2022/02/12 08:47:34;;;;;;;5.95;3.05;;;12.90;43.60;;;;;;4918587;29;20035;-87
2022/02/12 08:49:59;;;;;;;280.88;219.85;;;13.00;42.90;;;;;;4936312;29;20027;-87
2022/02/12 08:52:25;;;;;;;;;;;13.30;42.20;;;;;;4935815;29;20039;-87
2022/02/12 08:54:52;;;;;;;290.98;178.90;;;13.40;41.00;;;;;;4936426;29;19934;-87
2022/02/12 08:57:17;;;;;;;17.92;10.02;;;13.60;40.90;;;;;;4918451;29;20055;-86
2022/02/12 08:59:43;;;;;;;;;;;13.90;40.60;;;;;;4936023;29;20070;-87
2022/02/12 09:02:09;;;;;;;53.28;28.30;;;14.20;39.10;;;;;;4933811;29;20295;-85
2022/02/12 09:04:35;;;;;;;33.85;15.63;;;14.50;38.70;;;;;;4918515;29;20066;-87
2022/02/12 09:07:03;;;;;;;17.42;6.60;;;14.40;38.70;;;;;;4917945;29;20440;-86
2022/02/12 09:09:29;;;;;;;12.20;6.47;;;14.70;38.00;;;;;;4917625;29;20024;-85
2022/02/12 09:11:55;;;;;;;6.13;2.60;;;14.80;37.90;;;;;;4933943;29;20090;-85
2022/02/12 09:14:20;;;;;;;85.93;46.50;;;15.10;37.10;;;;;;4917686;29;20445;-88
2022/02/12 09:16:46;;;;;;;28.15;16.17;;;15.00;38.80;;;;;;4918332;29;20071;-89
2022/02/12 09:19:12;;;;;;;11.73;5.53;;;15.10;38.00;;;;;;4918476;29;20024;-85
2022/02/12 09:21:38;;;;;;;505.88;373.88;;;15.50;38.10;;;;;;4918887;29;20055;-84
2022/02/12 09:24:04;;;;;;;171.55;105.57;;;15.60;37.30;;;;;;4919218;29;20488;-86
2022/02/12 09:26:33;;;;;;;31.58;19.30;;;15.70;37.10;;;;;;4934981;29;20032;-86
2022/02/12 09:29:00;;;;;;;24.60;16.92;;;15.70;37.30;;;;;;4936356;29;20568;-86
2022/02/12 09:31:26;;;;;;;16.77;10.50;;;16.20;36.70;;;;;;4935867;29;20036;-85
2022/02/12 09:33:53;;;;;;;34.42;26.48;;;16.20;36.40;;;;;;4936216;29;20028;-86
2022/02/12 09:36:19;;;;;;;12.55;9.20;;;16.20;35.50;;;;;;4919169;29;20060;-85
2022/02/12 09:38:44;;;;;;;16.33;11.82;;;16.10;34.40;;;;;;4935662;29;20020;-84
2022/02/12 09:41:13;;;;;;;4.38;1.77;;;16.30;33.80;;;;;;4918126;29;20046;-85
2022/02/12 09:43:41;;;;;;;3.05;1.10;;;16.40;32.80;;;;;;4918906;29;20035;-84
2022/02/12 09:46:25;;;;;;;3.22;1.13;;;16.00;31.30;;;;;;4918892;29;20035;-86
2022/02/12 09:48:51;;;;;;;3.13;1.95;;;15.60;32.40;;;;;;4918459;29;20054;-85
2022/02/12 09:51:18;;;;;;;3.58;1.40;;;15.40;33.40;;;;;;4918148;29;20031;-85
2022/02/12 09:53:44;;;;;;;3.17;1.35;;;14.70;32.30;;;;;;4918722;29;20016;-89
2022/02/12 09:56:10;;;;;;;4.35;1.90;;;14.20;33.50;;;;;;4935963;29;20086;-88
2022/02/12 09:58:36;;;;;;;2.85;1.05;;;13.70;33.80;;;;;;4919300;29;20709;-90
2022/02/12 10:01:03;;;;;;;2.67;1.23;;;12.90;35.10;;;;;;4936118;29;20653;-90
2022/02/12 10:03:29;;;;;;;4.00;1.42;;;11.70;38.20;;;;;;4936892;29;20044;-80
2022/02/12 10:05:54;;;;;;;3.83;1.42;;;11.10;40.60;;;;;;4963303;29;20018;-79
2022/02/12 10:08:21;;;;;;;;;;;10.60;41.30;;;;;;4945271;29;20039;-79
2022/02/12 10:10:49;;;;;;;5.22;2.10;;;10.30;42.60;;;;;;4960048;29;19946;-79
2022/02/12 10:13:24;;;;;;;4.95;1.50;;;10.20;42.20;;;;;;4945495;29;20012;-79
2022/02/12 10:15:56;;;;;;;3.50;1.50;;;9.90;42.20;;;;;;4944297;29;20020;-79
2022/02/12 10:18:23;;;;;;;9.93;1.90;;;9.60;42.90;;;;;;4944788;29;20032;-79
2022/02/12 10:20:51;;;;;;;3.40;1.48;;;9.40;44.10;;;;;;4961441;29;20103;-79
2022/02/12 10:23:24;;;;;;;4.43;1.75;;;9.30;43.40;;;;;;4945536;29;20024;-79
2022/02/12 10:26:06;;;;;;;4.90;2.03;;;9.30;44.50;;;;;;4962216;29;20028;-79
2022/02/12 10:28:38;;;;;;;5.65;2.38;;;9.20;45.10;;;;;;4962510;29;20012;-79
2022/02/12 10:31:05;;;;;;;4.00;1.52;;;9.10;45.30;;;;;;4962924;29;20946;-78
2022/02/12 10:33:38;;;;;;;3.83;1.63;;;9.00;45.50;;;;;;4946379;29;20028;-78
2022/02/12 10:36:05;;;;;;;4.45;1.90;;;8.90;46.30;;;;;;4946174;29;20026;-79
2022/02/12 10:38:36;;;;;;;5.03;2.40;;;8.70;46.00;;;;;;4962161;29;20031;-79
2022/02/12 10:41:11;;;;;;;4.25;1.98;;;8.70;47.60;;;;;;4945636;29;20094;-78
2022/02/12 10:43:42;;;;;;;6.32;2.08;;;8.60;48.50;;;;;;4944353;29;20032;-80
2022/02/12 10:46:08;;;;;;;4.22;2.00;;;8.60;48.50;;;;;;4943955;29;20023;-79
2022/02/12 10:48:37;;;;;;;5.20;2.35;;;8.90;49.00;;;;;;4942891;29;20016;-79
2022/02/12 10:58:41;;;;;;;5.13;1.90;;;9.40;47.90;;;;;;5105709;23;20072;-80
2022/02/12 11:01:07;;;;;;;4.80;2.63;;;9.30;48.50;;;;;;4960412;29;20053;-81
2022/02/12 11:03:33;;;;;;;;;;;9.10;48.50;;;;;;4960292;29;20024;-80
2022/02/12 11:06:00;;;;;;;9.35;2.85;;;9.00;49.20;;;;;;4961109;29;19918;-80
2022/02/12 11:08:27;;;;;;;4.63;2.40;;;9.10;49.50;;;;;;4960579;29;20016;-80
2022/02/12 11:10:53;;;;;;;6.22;2.85;;;9.20;48.80;;;;;;4961239;29;20032;-80
2022/02/12 11:13:20;;;;;;;5.78;2.63;;;9.20;48.90;;;;;;4960059;29;20114;-80
2022/02/12 11:15:49;;;;;;;6.28;2.50;;;9.50;49.90;;;;;;4944383;29;20104;-81
2022/02/12 11:18:19;;;;;;;9.02;4.40;;;9.60;49.20;;;;;;4961882;29;20027;-78
2022/02/12 11:20:49;;;;;;;63.33;24.98;;;9.60;48.20;;;;;;4961939;29;20024;-79
2022/02/12 11:23:27;;;;;;;19.25;7.28;;;9.60;47.30;;;;;;4945353;29;20047;-79
2022/02/12 11:26:20;;;;;;;49.15;20.33;;;9.50;48.50;;;;;;4961889;29;20031;-80
2022/02/12 11:28:49;;;;;;;8.38;4.07;;;9.10;49.20;;;;;;4958670;29;20038;-79
2022/02/12 11:31:16;;;;;;;17.23;7.47;;;9.00;49.10;;;;;;4938675;29;20036;-79
2022/02/12 11:34:01;;;;;;;64.57;21.30;;;9.00;49.70;;;;;;4946706;29;20051;-79
2022/02/12 11:36:28;;;;;;;24.00;8.45;;;8.90;49.30;;;;;;4940087;29;20020;-80
2022/02/12 11:39:11;;;;;;;41.63;16.80;;;8.70;49.10;;;;;;4941448;29;20047;-79
2022/02/12 11:41:39;;;;;;;23.38;9.18;;;8.50;49.40;;;;;;4928611;29;20067;-77
2022/02/12 11:44:05;;;;;;;8.48;2.67;;;8.40;49.80;;;;;;4938461;29;20029;-80
2022/02/12 11:46:50;;;;;;;8.95;4.65;;;8.30;49.80;;;;;;4928219;29;20032;-78
2022/02/12 11:49:28;;;;;;;97.93;34.63;;;8.10;50.40;;;;;;4940246;29;20118;-79
2022/02/12 11:51:55;;;;;;;13.90;6.03;;;8.00;51.30;;;;;;4918366;29;20048;-79
2022/02/12 11:54:43;;;;;;;19.00;7.72;;;8.10;51.20;;;;;;4918045;29;20033;-80
2022/02/12 11:57:15;;;;;;;70.28;26.13;;;8.10;51.10;;;;;;4923154;29;20091;-79
2022/02/12 11:59:41;;;;;;;24.33;12.27;;;8.10;51.30;;;;;;4920882;29;20034;-77
2022/02/12 12:02:07;;;;;;;62.38;24.90;;;8.20;51.40;;;;;;4929105;29;20123;-79
2022/02/12 12:04:33;;;;;;;;;;;8.20;50.60;;;;;;4936082;29;20413;-78
2022/02/12 12:07:05;;;;;;;82.10;30.25;;;8.00;51.20;;;;;;4935293;29;19914;-78
2022/02/12 12:09:36;;;;;;;16.25;7.28;;;8.00;52.80;;;;;;4935641;29;20008;-78
2022/02/12 12:12:22;;;;;;;9.02;3.92;;;8.10;52.60;;;;;;4934834;29;20032;-78
2022/02/12 12:15:11;;;;;;;13.35;6.72;;;8.00;52.40;;;;;;4919117;29;20032;-80
2022/02/12 12:17:37;;;;;;;11.18;5.15;;;8.00;52.30;;;;;;4931122;29;20035;-78
2022/02/12 12:20:03;;;;;;;;;;;8.00;52.30;;;;;;4927188;29;20040;-78
2022/02/12 12:22:29;;;;;;;11.25;5.40;;;7.90;52.90;;;;;;4926776;29;19918;-79
2022/02/12 12:24:59;;;;;;;16.00;6.35;;;7.90;53.00;;;;;;4930155;29;20110;-78
2022/02/12 12:27:25;;;;;;;27.73;5.50;;;7.90;52.60;;;;;;4932215;29;20036;-79
2022/02/12 12:32:36;;;;;;;5.85;3.05;;;7.70;52.90;;;;;;4936731;29;20019;-79
2022/02/12 12:35:03;;;;;;;;;;;7.80;52.60;;;;;;4938406;29;20059;-79
2022/02/12 12:37:32;;;;;;;11.05;4.15;;;7.80;53.00;;;;;;4935903;29;19911;-79
2022/02/12 12:40:00;;;;;;;22.70;7.13;;;7.90;52.20;;;;;;4937274;29;20035;-79
2022/02/12 12:42:29;;;;;;;11.82;5.03;;;7.80;52.60;;;;;;4936889;29;20120;-80
2022/02/12 12:44:59;;;;;;;19.48;6.32;;;7.70;52.60;;;;;;4921313;29;20048;-79
2022/02/12 12:47:30;;;;;;;13.48;3.97;;;7.80;52.10;;;;;;4935263;29;20051;-79
2022/02/12 12:49:58;;;;;;;18.08;6.82;;;7.70;52.00;;;;;;4932811;29;20024;-79
2022/02/12 12:52:26;;;;;;;10.80;4.20;;;7.70;52.30;;;;;;4932057;29;20040;-78
2022/02/12 12:55:13;;;;;;;22.13;8.63;;;7.80;51.70;;;;;;4917966;29;20035;-79
2022/02/12 12:57:43;;;;;;;32.95;12.80;;;7.70;50.90;;;;;;4922702;29;20036;-79
2022/02/12 13:00:10;;;;;;;9.32;3.30;;;7.80;50.50;;;;;;4936278;29;20112;-79
2022/02/12 13:02:50;;;;;;;4.90;2.00;;;7.80;49.90;;;;;;4932079;29;20103;-79
2022/02/12 13:05:26;;;;;;;5.13;2.20;;;7.90;49.40;;;;;;4931431;29;20035;-79
2022/02/12 13:07:54;;;;;;;6.93;2.72;;;7.80;48.90;;;;;;4933664;29;20028;-79
2022/02/12 13:10:25;;;;;;;6.00;2.65;;;7.90;49.60;;;;;;4934895;29;20024;-79
2022/02/12 13:12:52;;;;;;;8.63;3.15;;;8.10;48.70;;;;;;4925798;29;20036;-78
2022/02/12 13:15:24;;;;;;;9.63;4.20;;;8.40;48.60;;;;;;4926715;29;20032;-78
2022/02/12 13:17:57;;;;;;;23.08;9.02;;;8.40;48.10;;;;;;4936894;29;20032;-80
2022/02/12 13:20:24;;;;;;;8.43;3.35;;;8.50;47.90;;;;;;4942327;29;20039;-79
2022/02/12 13:22:58;;;;;;;7.35;3.78;;;8.50;46.80;;;;;;4941494;29;20039;-79
2022/02/12 13:25:30;;;;;;;20.17;7.03;;;8.50;47.10;;;;;;4942325;29;20015;-79
2022/02/12 13:27:57;;;;;;;6.30;3.17;;;8.70;47.10;;;;;;4941844;29;20016;-79
2022/02/12 13:30:29;;;;;;;4.88;2.25;;;8.80;46.90;;;;;;4942996;29;20080;-80
2022/02/12 13:32:56;;;;;;;7.32;3.22;;;8.60;46.80;;;;;;4942642;29;20016;-80
2022/02/12 13:35:23;;;;;;;11.30;7.00;;;8.50;47.90;;;;;;4942298;29;20032;-79
2022/02/12 13:37:53;;;;;;;6.13;2.90;;;8.50;48.70;;;;;;4942728;29;20012;-80
2022/02/12 13:40:28;;;;;;;4.18;2.50;;;8.50;48.10;;;;;;4943036;29;20041;-80
2022/02/12 13:43:02;;;;;;;6.72;2.72;;;8.40;47.80;;;;;;4942277;29;20077;-79
2022/02/12 13:45:29;;;;;;;4.95;2.55;;;8.60;48.00;;;;;;4942865;29;20013;-79
2022/02/12 13:48:04;;;;;;;7.57;3.10;;;8.50;47.90;;;;;;4943109;29;20012;-80
2022/02/12 13:50:32;;;;;;;7.45;3.75;;;8.70;48.20;;;;;;4942078;29;20031;-79
2022/02/12 13:53:05;;;;;;;6.82;3.20;;;8.80;47.30;;;;;;4942463;29;20020;-79
2022/02/12 13:55:46;;;;;;;10.85;5.43;;;8.90;47.00;;;;;;4939023;29;20043;-78
2022/02/12 13:58:12;;;;;;;12.68;5.53;;;8.80;47.00;;;;;;4942428;29;20032;-80
2022/02/12 14:00:40;;;;;;;82.70;34.08;;;8.90;47.20;;;;;;4939061;29;20040;-78
2022/02/12 14:03:06;;;;;;;4.95;2.15;;;9.00;46.30;;;;;;4940380;29;20013;-78
2022/02/12 14:05:32;;;;;;;;;;;8.90;44.10;;;;;;4924822;29;20049;-79
2022/02/12 14:07:58;;;;;;;4.47;2.22;;;8.80;44.50;;;;;;4904628;29;19911;-80
2022/02/12 14:10:27;;;;;;;;;;;8.80;44.70;;;;;;4935091;29;20469;-80
2022/02/12 14:12:56;;;;;;;11.63;3.45;;;8.70;45.10;;;;;;4936126;29;19907;-80
2022/02/12 14:15:22;;;;;;;7.00;2.80;;;8.80;46.10;;;;;;4919365;29;20025;-80
2022/02/12 14:17:48;;;;;;;6.88;4.00;;;8.70;46.30;;;;;;4936707;29;20062;-79
2022/02/12 14:20:15;;;;;;;;;;;8.80;46.30;;;;;;4939031;29;20083;-80
2022/02/12 14:22:42;;;;;;;10.63;2.55;;;8.70;46.20;;;;;;4936009;29;19963;-79
2022/02/12 14:25:09;;;;;;;6.20;2.72;;;8.60;46.50;;;;;;4937982;29;20024;-78
2022/02/12 14:27:35;;;;;;;9.98;5.40;;;8.40;46.80;;;;;;4939578;29;20419;-79
2022/02/12 14:30:01;;;;;;;7.63;3.65;;;8.30;47.00;;;;;;4935310;29;20028;-78
2022/02/12 14:32:26;;;;;;;;;;;8.40;47.10;;;;;;4931632;29;20036;-78
2022/02/12 14:34:53;;;;;;;19.27;9.52;;;8.40;46.80;;;;;;4927258;29;20501;-79
2022/02/12 14:37:19;;;;;;;37.28;19.15;;;8.30;46.30;;;;;;4933794;29;20457;-77
2022/02/12 14:39:46;;;;;;;14.05;8.57;;;8.20;46.30;;;;;;4936762;29;20039;-79
2022/02/12 14:42:14;;;;;;;10.93;5.68;;;8.20;46.30;;;;;;4937994;29;20027;-78
2022/02/12 14:44:43;;;;;;;7.70;3.83;;;8.20;45.50;;;;;;4914790;29;20024;-79
2022/02/12 14:47:10;;;;;;;13.30;7.50;;;8.10;45.30;;;;;;4933698;29;20031;-78
2022/02/12 14:49:37;;;;;;;6.35;4.90;;;7.90;45.70;;;;;;4938254;29;20044;-79
2022/02/12 14:52:04;;;;;;;10.57;2.42;;;7.80;46.30;;;;;;4939914;29;20016;-78
2022/02/12 14:54:30;;;;;;;8.43;3.65;;;7.70;46.90;;;;;;4934957;29;20082;-78
2022/02/12 14:56:56;;;;;;;12.90;7.88;;;7.70;47.10;;;;;;4939239;29;20036;-79
2022/02/12 14:59:22;;;;;;;7.18;2.58;;;7.60;47.70;;;;;;4935552;29;20036;-79
2022/02/12 15:01:48;;;;;;;;;;;7.50;47.50;;;;;;4940099;29;20082;-78
2022/02/12 15:04:14;;;;;;;5.07;2.92;;;7.60;47.80;;;;;;4924501;29;19919;-79
2022/02/12 15:06:40;;;;;;;;;;;7.50;48.00;;;;;;4941224;29;20036;-79
2022/02/12 15:09:06;;;;;;;13.57;3.13;;;7.40;48.20;;;;;;4942414;29;19911;-79
2022/02/12 15:11:32;;;;;;;;;;;7.30;48.40;;;;;;4942423;29;20065;-78
2022/02/12 15:14:00;;;;;;;6.57;2.92;;;7.20;48.60;;;;;;4940935;29;19927;-78
2022/02/12 15:16:26;;;;;;;6.20;2.90;;;7.20;48.60;;;;;;4931835;29;20014;-78
2022/02/12 15:18:52;;;;;;;6.13;3.42;;;7.20;48.60;;;;;;4929064;29;20032;-79
2022/02/12 15:21:18;;;;;;;4.30;2.42;;;7.20;48.60;;;;;;4933417;29;20083;-79
2022/02/12 15:23:44;;;;;;;6.38;2.70;;;7.10;48.40;;;;;;4937822;29;20044;-78
2022/02/12 15:26:10;;;;;;;;;;;7.00;48.50;;;;;;4926509;29;20036;-78
2022/02/12 15:28:36;;;;;;;6.72;3.13;;;6.90;48.70;;;;;;4942020;29;19902;-79
2022/02/12 15:31:06;;;;;;;15.35;6.65;;;6.80;48.90;;;;;;4939515;29;20017;-78
2022/02/12 15:33:37;;;;;;;23.17;9.73;;;6.70;49.20;;;;;;4936351;29;20039;-79
2022/02/12 15:36:05;;;;;;;25.05;14.68;;;6.60;49.60;;;;;;4931698;29;20035;-79
2022/02/12 15:38:31;;;;;;;23.85;14.10;;;6.60;49.90;;;;;;4914884;29;20024;-78
2022/02/12 15:40:58;;;;;;;13.10;7.15;;;6.50;50.10;;;;;;4936422;29;20036;-78
2022/02/12 15:43:25;;;;;;;19.45;7.85;;;6.40;50.30;;;;;;4938880;29;20026;-78
2022/02/12 15:45:51;;;;;;;14.18;7.63;;;6.30;50.40;;;;;;4941613;29;20049;-78
2022/02/12 15:48:19;;;;;;;13.98;8.00;;;6.30;50.50;;;;;;4941413;29;20020;-80
2022/02/12 15:53:11;;;;;;;187.27;76.35;;;6.10;51.20;;;;;;5411257;23;20055;-79
2022/02/12 15:55:38;;;;;;;87.85;35.60;;;6.00;52.10;;;;;;4938977;29;20032;-79
2022/02/12 15:58:04;;;;;;;19.48;8.98;;;5.90;52.10;;;;;;4958794;28;20018;-78
2022/02/12 16:00:30;;;;;;;;;;;5.80;52.30;;;;;;4960011;29;20040;-80
2022/02/12 16:02:56;;;;;;;15.88;5.85;;;5.70;53.10;;;;;;4959088;28;19914;-78
2022/02/12 16:05:22;;;;;;;;;;;5.60;54.00;;;;;;4961781;28;20024;-79
2022/02/12 16:07:48;;;;;;;9.55;4.72;;;5.40;55.60;;;;;;4961451;28;19913;-80
2022/02/12 16:10:14;;;;;;;22.27;11.95;;;5.30;56.70;;;;;;4961395;28;20023;-79
2022/02/12 16:12:41;;;;;;;;;;;5.20;57.80;;;;;;4961760;28;20019;-80
2022/02/12 16:15:09;;;;;;;19.77;10.18;;;5.00;59.10;;;;;;4961492;28;19894;-79
2022/02/12 16:17:35;;;;;;;20.48;8.90;;;4.90;59.60;;;;;;4961009;28;20020;-78
2022/02/12 16:20:01;;;;;;;15.13;6.85;;;4.80;60.30;;;;;;4961533;28;20011;-79
2022/02/12 16:22:27;;;;;;;17.67;9.13;;;4.70;61.30;;;;;;4961407;28;20031;-78
2022/02/12 16:24:54;;;;;;;21.13;9.93;;;4.50;62.50;;;;;;4960313;28;20004;-79
2022/02/12 16:27:20;;;;;;;22.33;11.48;;;4.50;63.90;;;;;;4961072;28;20031;-79
2022/02/12 16:29:45;;;;;;;31.25;13.27;;;4.30;65.60;;;;;;4961218;28;20016;-78
2022/02/12 16:32:14;;;;;;;;;;;4.30;67.50;;;;;;4955806;29;20083;-84
2022/02/12 16:34:40;;;;;;;36.22;15.57;;;4.20;69.30;;;;;;4942123;29;19906;-80
2022/02/12 16:37:07;;;;;;;29.38;11.02;;;4.10;71.20;;;;;;4939891;29;20032;-80
2022/02/12 16:39:34;;;;;;;21.67;10.15;;;4.00;72.30;;;;;;4943304;29;20020;-80
2022/02/12 16:42:00;;;;;;;39.95;16.02;;;3.90;74.80;;;;;;4939457;29;20066;-79
2022/02/12 16:44:31;;;;;;;105.35;46.85;;;3.90;76.50;;;;;;4941835;29;20012;-81
2022/02/12 16:46:57;;;;;;;126.55;56.50;;;3.90;77.50;;;;;;4955158;29;20011;-80
2022/02/12 16:52:12;;;;;;;85.43;40.00;;;3.60;80.30;;;;;;5268434;23;20071;-79
2022/02/12 16:54:38;;;;;;;41.50;20.05;;;3.50;82.20;;;;;;4929416;29;20040;-79
2022/02/12 16:57:06;;;;;;;27.20;12.10;;;3.30;84.00;;;;;;4944856;29;20039;-81
2022/02/12 16:59:36;;;;;;;29.88;14.43;;;3.20;85.40;;;;;;4943943;29;20092;-80
2022/02/12 17:02:02;;;;;;;17.42;9.52;;;3.20;85.80;;;;;;4944258;29;20052;-78
2022/02/12 17:04:27;;;;;;;;;;;3.20;86.00;;;;;;4927677;29;20036;-82
2022/02/12 17:06:53;;;;;;;16.95;7.30;;;3.20;85.90;;;;;;4944632;29;19895;-80
2022/02/12 17:09:20;;;;;;;;;;;3.20;85.80;;;;;;4945405;29;20064;-82
2022/02/12 17:11:45;;;;;;;16.45;6.82;;;3.20;85.90;;;;;;4944228;29;19902;-79
2022/02/12 17:14:11;;;;;;;;;;;3.10;86.00;;;;;;4944934;29;20083;-78
2022/02/12 17:16:37;;;;;;;11.65;5.47;;;3.10;86.40;;;;;;4950454;29;19903;-79
2022/02/12 17:19:03;;;;;;;8.85;4.72;;;3.00;86.10;;;;;;4961180;29;20095;-81
2022/02/12 17:21:30;;;;;;;10.70;5.05;;;3.00;86.30;;;;;;4961599;29;20051;-78
2022/02/12 17:23:56;;;;;;;11.27;4.72;;;3.00;86.30;;;;;;4959849;29;20043;-78
2022/02/12 17:26:22;;;;;;;;;;;3.00;84.10;;;;;;4961655;29;20020;-79
2022/02/12 17:28:48;;;;;;;13.63;5.60;;;3.20;81.90;;;;;;4945623;29;19895;-78
2022/02/12 17:31:18;;;;;;;12.93;5.35;;;3.20;81.00;;;;;;4944227;29;20032;-79
2022/02/12 17:33:44;;;;;;;12.98;4.75;;;3.20;80.10;;;;;;4958148;29;20016;-79
2022/02/12 17:36:12;;;;;;;9.43;4.20;;;3.20;78.30;;;;;;4959611;29;20095;-78
2022/02/12 17:38:42;;;;;;;8.68;3.50;;;3.20;74.80;;;;;;4943762;29;20027;-79
2022/02/12 17:41:09;;;;;;;11.15;4.10;;;3.30;71.90;;;;;;4957810;29;20039;-78
2022/02/12 17:43:36;;;;;;;10.68;4.07;;;3.30;70.30;;;;;;4942043;29;20023;-79
2022/02/12 17:46:05;;;;;;;14.18;4.03;;;3.50;68.70;;;;;;4961588;29;20048;-79
2022/02/12 17:48:31;;;;;;;9.20;3.53;;;3.50;67.70;;;;;;4962013;29;20020;-79
2022/02/12 17:56:14;;;;;;;8.25;3.47;;;3.50;67.00;;;;;;4993921;23;20044;-80
2022/02/12 17:58:40;;;;;;;;;;;3.50;66.90;;;;;;4933989;29;20040;-80
2022/02/12 18:01:06;;;;;;;9.98;4.35;;;3.50;66.70;;;;;;4918196;29;19951;-80